Time;durP1;ratioP1;P1;durP2;ratioP2;P2;SDS_P1;SDS_P2;PMS_P1;PMS_P2;Temp;Humidity;BMP_temperature;BMP_pressure;BME280_temperature;BME280_humidity;BME280_pressure;Samples;Min_cycle;Max_cycle;Signal;HPM_P1;HPM_P2
2022/05/29 00:01:41;;;;;;;12.10;4.38;;;;;;;8.60;78.36;100994.66;5043823;28;20117;-84
2022/05/29 00:04:08;;;;;;;8.15;3.53;;;;;;;8.55;78.28;100986.41;5045181;28;20053;-82
2022/05/29 00:06:40;;;;;;;10.55;4.28;;;;;;;8.53;78.51;100983.09;5046751;28;20077;-82
2022/05/29 00:09:08;;;;;;;9.38;3.83;;;;;;;8.53;78.32;100988.31;5051506;28;20065;-79
2022/05/29 00:11:35;;;;;;;13.63;4.20;;;;;;;8.47;78.74;100988.88;5054558;28;20053;-83
2022/05/29 00:14:02;;;;;;;10.48;3.85;;;;;;;8.35;79.14;100990.78;5056564;28;20092;-81
2022/05/29 00:16:29;;;;;;;8.95;3.75;;;;;;;8.39;79.27;100992.16;5054804;28;20060;-81
2022/05/29 00:18:55;;;;;;;6.50;4.00;;;;;;;8.28;79.62;100989.63;5049568;28;20061;-84
2022/05/29 00:21:22;;;;;;;11.50;3.85;;;;;;;8.25;79.67;100985.50;5048366;28;20052;-82
2022/05/29 00:23:51;;;;;;;10.50;4.03;;;;;;;8.25;79.62;100980.28;5047986;28;20081;-83
2022/05/29 00:26:18;;;;;;;5.82;3.67;;;;;;;8.24;79.79;100981.22;5048104;28;20077;-83
2022/05/29 00:28:45;;;;;;;10.02;4.18;;;;;;;8.22;80.36;100980.53;5046146;28;20063;-82
2022/05/29 00:31:12;;;;;;;8.07;4.03;;;;;;;8.18;80.56;100976.53;5044228;28;20077;-80
2022/05/29 00:33:41;;;;;;;9.77;4.28;;;;;;;8.10;80.48;100965.94;5044873;28;20132;-81
2022/05/29 00:36:10;;;;;;;8.05;3.95;;;;;;;8.11;80.74;100988.44;5038330;28;20045;-82
2022/05/29 00:38:41;;;;;;;10.07;4.38;;;;;;;8.08;81.17;100975.69;5046223;28;20132;-82
2022/05/29 00:41:17;;;;;;;9.82;3.97;;;;;;;8.12;80.84;100973.63;5044936;28;20088;-82
2022/05/29 00:43:44;;;;;;;8.02;4.03;;;;;;;8.10;81.18;100967.72;5045998;28;20053;-83
2022/05/29 00:46:12;;;;;;;8.02;4.10;;;;;;;8.09;81.01;100966.06;5045535;28;20056;-84
2022/05/29 00:48:39;;;;;;;9.85;4.32;;;;;;;8.03;81.35;100969.25;5043986;28;20041;-82
2022/05/29 00:51:09;;;;;;;10.55;4.15;;;;;;;8.03;81.50;100956.22;5041938;28;20593;-82
2022/05/29 00:53:38;;;;;;;10.88;4.97;;;;;;;8.12;80.98;100963.22;5042553;28;20263;-81
2022/05/29 00:56:10;;;;;;;9.85;4.70;;;;;;;8.09;81.17;100968.69;5043476;28;20088;-83
2022/05/29 00:58:37;;;;;;;9.10;4.40;;;;;;;8.04;81.37;100953.44;5039626;28;20056;-82
2022/05/29 01:01:04;;;;;;;10.98;4.28;;;;;;;8.07;81.62;100961.00;5038230;28;20061;-83
2022/05/29 01:03:31;;;;;;;8.38;3.90;;;;;;;8.06;81.63;100954.13;5040910;28;20568;-82
2022/05/29 01:05:58;;;;;;;8.73;4.32;;;;;;;8.07;81.55;100950.56;5043010;28;20483;-83
2022/05/29 01:08:29;;;;;;;9.73;4.13;;;;;;;8.01;81.54;100951.13;5045869;28;20077;-84
2022/05/29 01:11:11;;;;;;;12.25;3.90;;;;;;;8.02;81.55;100944.13;5045507;28;20113;-84
2022/05/29 01:13:49;;;;;;;13.17;4.10;;;;;;;8.04;81.39;100937.81;5047240;28;20056;-83
2022/05/29 01:16:26;;;;;;;9.18;3.97;;;;;;;8.02;81.70;100950.16;5050177;28;20288;-84
2022/05/29 01:19:10;;;;;;;9.50;3.95;;;;;;;8.05;81.70;100946.44;5050079;28;20115;-84
2022/05/29 01:21:57;;;;;;;8.15;3.78;;;;;;;7.98;82.06;100943.56;5048286;28;20057;-83
2022/05/29 01:24:51;;;;;;;7.40;3.92;;;;;;;7.91;82.43;100934.63;5043547;28;20129;-81
2022/05/29 01:27:39;;;;;;;8.43;3.80;;;;;;;7.85;83.08;100941.19;5045349;28;20081;-84
2022/05/29 01:30:12;;;;;;;10.55;4.10;;;;;;;7.89;83.34;100941.75;5048007;28;20566;-83
2022/05/29 01:32:44;;;;;;;12.50;4.95;;;;;;;7.86;83.47;100949.81;5038245;28;20520;-84
2022/05/29 01:35:14;;;;;;;9.70;4.00;;;;;;;7.84;83.84;100943.91;5036719;28;20049;-82
2022/05/29 01:37:49;;;;;;;10.85;4.20;;;;;;;7.73;84.19;100944.81;5039491;28;20144;-81
2022/05/29 01:40:24;;;;;;;10.15;3.85;;;;;;;7.80;84.30;100950.34;5041152;28;20133;-81
2022/05/29 01:42:54;;;;;;;8.90;4.05;;;;;;;7.66;84.92;100941.06;5045165;28;20132;-83
2022/05/29 01:45:31;;;;;;;9.60;4.13;;;;;;;7.63;85.04;100944.75;5045185;28;20073;-83
2022/05/29 01:48:05;;;;;;;7.25;3.92;;;;;;;7.65;84.92;100940.25;5045672;28;20113;-83
2022/05/29 01:50:36;;;;;;;11.05;3.97;;;;;;;7.66;85.35;100931.50;5046639;28;20049;-81
2022/05/29 01:53:12;;;;;;;7.32;4.03;;;;;;;7.55;85.64;100934.19;5046513;28;20113;-84
2022/05/29 01:55:46;;;;;;;9.60;4.20;;;;;;;7.51;86.07;100929.38;5046613;28;20041;-84
2022/05/29 01:58:17;;;;;;;7.70;4.20;;;;;;;7.62;85.85;100931.88;5047327;28;20123;-83
2022/05/29 02:00:49;;;;;;;8.88;4.00;;;;;;;7.55;86.17;100926.38;5046827;28;20117;-84
2022/05/29 02:03:20;;;;;;;9.38;4.15;;;;;;;7.65;86.04;100926.41;5046658;28;20096;-85
2022/05/29 02:05:51;;;;;;;14.70;4.57;;;;;;;7.54;86.21;100929.94;5046478;28;20109;-84
2022/05/29 02:08:22;;;;;;;14.45;4.13;;;;;;;7.48;86.55;100927.84;5044958;28;20133;-84
2022/05/29 02:10:54;;;;;;;10.93;4.57;;;;;;;7.42;86.71;100922.31;5045810;28;20077;-84
2022/05/29 02:13:24;;;;;;;11.45;4.50;;;;;;;7.48;86.35;100927.84;5044901;28;20117;-83
2022/05/29 02:15:56;;;;;;;10.00;4.72;;;;;;;7.48;86.26;100927.03;5044141;28;20129;-82
2022/05/29 02:18:32;;;;;;;11.52;3.90;;;;;;;7.44;86.34;100928.22;5046021;28;20072;-83
2022/05/29 02:21:03;;;;;;;14.35;4.72;;;;;;;7.39;86.99;100918.19;5046052;28;20091;-83
2022/05/29 02:23:44;;;;;;;12.45;5.25;;;;;;;7.39;86.65;100923.41;5046635;28;20105;-82
2022/05/29 02:26:16;;;;;;;8.13;4.90;;;;;;;7.33;86.59;100916.09;5048065;28;20049;-83
2022/05/29 02:28:45;;;;;;;;;;;;;;;7.33;87.30;100919.53;5046059;28;20128;-82
2022/05/29 02:31:23;;;;;;;8.52;4.60;;;;;;;7.27;87.21;100912.22;5044495;28;19921;-80
2022/05/29 02:33:58;;;;;;;7.20;4.38;;;;;;;7.25;87.19;100910.72;5052412;28;20073;-81
2022/05/29 02:36:33;;;;;;;13.35;4.57;;;;;;;7.31;87.99;100905.81;5051254;28;20113;-82
2022/05/29 02:39:28;;;;;;;9.73;4.30;;;;;;;7.38;87.55;100903.53;5046484;28;20499;-80
2022/05/29 02:42:06;;;;;;;10.80;4.57;;;;;;;7.45;87.15;100903.84;5046213;28;20120;-79
2022/05/29 02:44:49;;;;;;;11.95;4.60;;;;;;;7.51;86.67;100905.94;5045618;28;20049;-80
2022/05/29 02:47:30;;;;;;;11.82;4.80;;;;;;;7.53;86.40;100907.47;5040368;28;20116;-81
2022/05/29 02:50:15;;;;;;;11.75;5.00;;;;;;;7.53;86.37;100897.03;5038938;28;20573;-80
2022/05/29 02:52:42;;;;;;;11.70;4.68;;;;;;;7.54;86.75;100896.09;5041338;28;20053;-79
2022/05/29 02:55:08;;;;;;;15.13;4.95;;;;;;;7.62;86.56;100885.00;5045607;28;20073;-80
2022/05/29 02:57:35;;;;;;;10.50;4.75;;;;;;;7.63;86.70;100887.47;5046141;28;20053;-80
2022/05/29 03:00:11;;;;;;;12.23;5.30;;;;;;;7.64;86.75;100891.72;5045574;28;20064;-81
2022/05/29 03:02:44;;;;;;;13.05;5.03;;;;;;;7.61;86.72;100878.97;5045169;28;20482;-81
2022/05/29 03:05:17;;;;;;;12.45;5.13;;;;;;;7.68;87.15;100889.69;5045497;28;20112;-81
2022/05/29 03:07:53;;;;;;;11.95;4.70;;;;;;;7.72;87.10;100887.66;5046680;28;20057;-82
2022/05/29 03:10:24;;;;;;;11.65;4.97;;;;;;;7.77;87.06;100888.06;5046633;28;20072;-82
2022/05/29 03:13:02;;;;;;;9.48;4.90;;;;;;;7.77;87.12;100886.28;5047469;28;20121;-81
2022/05/29 03:15:41;;;;;;;12.65;5.18;;;;;;;7.82;86.79;100888.50;5046203;28;20080;-82
2022/05/29 03:18:21;;;;;;;12.45;5.20;;;;;;;7.92;87.61;100887.59;5047412;28;20065;-82
2022/05/29 03:20:57;;;;;;;10.45;5.45;;;;;;;7.93;87.07;100885.81;5048729;28;20041;-81
2022/05/29 03:23:31;;;;;;;9.18;4.97;;;;;;;8.00;87.16;100892.16;5051800;28;20068;-81
2022/05/29 03:26:01;;;;;;;9.85;5.05;;;;;;;8.10;86.89;100892.97;5050018;28;20049;-81
2022/05/29 03:28:34;;;;;;;8.50;4.65;;;;;;;8.15;86.28;100888.19;5046190;28;20052;-81
2022/05/29 03:31:08;;;;;;;12.63;5.38;;;;;;;8.16;86.52;100897.66;5047302;28;20049;-81
2022/05/29 03:33:38;;;;;;;13.85;4.80;;;;;;;8.12;86.18;100885.84;5047769;28;20100;-81
2022/05/29 03:36:08;;;;;;;12.38;4.25;;;;;;;8.12;86.09;100888.44;5046063;28;20109;-82
2022/05/29 03:38:35;;;;;;;12.10;5.07;;;;;;;8.01;86.70;100887.75;5043708;28;20085;-81
2022/05/29 03:41:13;;;;;;;10.18;4.70;;;;;;;8.06;87.24;100886.38;5040622;28;20132;-83
2022/05/29 03:43:42;;;;;;;9.02;4.80;;;;;;;8.12;86.66;100883.22;5040452;28;20045;-82
2022/05/29 03:46:08;;;;;;;10.50;5.03;;;;;;;8.13;86.66;100891.88;5065947;22;20046;-79
2022/05/29 03:48:36;;;;;;;14.15;4.88;;;;;;;8.15;86.79;100890.78;5035805;28;20144;-79
2022/05/29 03:51:07;;;;;;;12.70;4.72;;;;;;;8.16;86.70;100886.41;5037831;28;20523;-79
2022/05/29 03:53:35;;;;;;;11.20;5.40;;;;;;;8.17;87.05;100888.88;5038008;28;20049;-79
2022/05/29 03:56:03;;;;;;;13.32;4.97;;;;;;;8.09;87.53;100885.28;5038960;28;20109;-77
2022/05/29 03:58:29;;;;;;;12.43;5.28;;;;;;;8.11;87.84;100889.41;5038209;28;20502;-78
2022/05/29 04:00:56;;;;;;;10.77;5.47;;;;;;;8.15;88.17;100885.56;5034735;28;20125;-78
2022/05/29 04:03:22;;;;;;;10.18;5.10;;;;;;;8.16;88.38;100882.00;5040452;28;20129;-78
2022/05/29 04:05:51;;;;;;;17.20;5.57;;;;;;;8.20;88.34;100880.78;5044282;28;20068;-79
2022/05/29 04:13:46;;;;;;;12.10;5.35;;;;;;;8.40;87.74;100875.63;5043504;28;20171;-78
2022/05/29 04:16:14;;;;;;;14.07;5.22;;;;;;;8.31;87.94;100859.81;5043229;28;20121;-79
2022/05/29 04:18:41;;;;;;;12.88;5.30;;;;;;;8.30;87.85;100863.38;5037117;28;20083;-79
2022/05/29 04:21:09;;;;;;;12.10;5.82;;;;;;;8.39;87.35;100871.38;5035518;28;20057;-79
2022/05/29 04:23:36;;;;;;;12.55;5.75;;;;;;;8.51;86.89;100859.84;5034938;28;20128;-79
2022/05/29 04:26:03;;;;;;;13.63;6.05;;;;;;;8.52;86.98;100853.66;5035537;28;20475;-78
2022/05/29 04:28:30;;;;;;;12.65;5.55;;;;;;;8.61;86.47;100850.22;5038523;28;20050;-79
2022/05/29 04:30:57;;;;;;;10.02;5.70;;;;;;;8.75;86.59;100857.66;5037691;28;20105;-80
2022/05/29 04:33:24;;;;;;;14.13;5.97;;;;;;;8.87;85.30;100851.31;5037243;28;20053;-80
2022/05/29 04:35:53;;;;;;;12.65;5.88;;;;;;;9.01;84.82;100857.03;5037263;28;20140;-80
2022/05/29 04:38:23;;;;;;;10.63;6.40;;;;;;;8.96;84.92;100854.88;5036891;28;20071;-80
2022/05/29 04:40:50;;;;;;;12.63;5.80;;;;;;;9.12;84.15;100849.06;5036876;28;20133;-81
2022/05/29 04:43:17;;;;;;;11.70;5.63;;;;;;;9.12;84.22;100843.84;5037138;28;20569;-80
2022/05/29 04:45:45;;;;;;;12.63;5.68;;;;;;;9.17;84.03;100842.47;5036170;28;20165;-80
2022/05/29 04:48:13;;;;;;;14.05;6.47;;;;;;;9.24;83.70;100848.75;5036042;28;20084;-80
2022/05/29 04:50:40;;;;;;;15.70;6.55;;;;;;;9.25;83.57;100839.13;5036142;28;20053;-80
2022/05/29 04:53:07;;;;;;;13.23;6.70;;;;;;;9.38;83.40;100850.09;5036335;28;20133;-81
2022/05/29 04:55:35;;;;;;;11.50;6.32;;;;;;;9.62;82.62;100847.78;5034305;28;20136;-79
2022/05/29 04:58:02;;;;;;;18.52;6.68;;;;;;;9.60;82.21;100847.09;5036247;28;20136;-78
2022/05/29 05:00:29;;;;;;;10.57;6.03;;;;;;;9.54;82.96;100847.69;5039093;28;20148;-79
2022/05/29 05:02:56;;;;;;;11.52;7.13;;;;;;;9.71;82.25;100848.72;5038749;28;20081;-80
2022/05/29 05:05:23;;;;;;;13.95;6.95;;;;;;;9.80;81.85;100844.41;5039009;28;20050;-80
2022/05/29 05:07:49;;;;;;;18.40;6.55;;;;;;;10.02;81.59;100848.41;5041829;28;20108;-79
2022/05/29 05:10:17;;;;;;;11.00;6.13;;;;;;;10.08;81.24;100838.19;5047507;28;20167;-80
2022/05/29 05:12:46;;;;;;;13.30;6.60;;;;;;;10.06;81.12;100842.72;5051180;28;20107;-80
2022/05/29 05:15:15;;;;;;;13.70;6.25;;;;;;;10.08;80.62;100838.19;5050074;28;20045;-81
2022/05/29 05:17:42;;;;;;;13.65;6.60;;;;;;;9.95;81.01;100835.09;5046177;28;20045;-81
2022/05/29 05:20:10;;;;;;;15.73;7.28;;;;;;;10.24;80.86;100825.31;5042789;28;20060;-81
2022/05/29 05:22:37;;;;;;;12.57;6.90;;;;;;;11.28;76.15;100823.63;5041575;28;20450;-81
2022/05/29 05:25:05;;;;;;;15.10;6.80;;;;;;;11.56;74.52;100826.84;5048291;28;20050;-80
2022/05/29 05:27:32;;;;;;;12.02;6.47;;;;;;;11.38;74.98;100833.97;5049206;28;20053;-80
2022/05/29 05:29:59;;;;;;;15.88;6.93;;;;;;;10.96;76.53;100834.69;5049874;28;20049;-79
2022/05/29 05:32:26;;;;;;;12.25;6.60;;;;;;;10.71;77.29;100832.91;5041496;28;20119;-79
2022/05/29 05:34:53;;;;;;;14.15;6.32;;;;;;;11.08;76.70;100837.06;5039669;28;20056;-78
2022/05/29 05:37:19;;;;;;;13.23;6.47;;;;;;;10.77;77.08;100827.06;5037714;28;20514;-79
2022/05/29 05:39:46;;;;;;;14.23;7.55;;;;;;;10.92;77.30;100832.53;5036764;28;20445;-79
2022/05/29 05:42:13;;;;;;;12.00;6.80;;;;;;;10.99;76.88;100830.97;5038679;28;20049;-79
2022/05/29 05:44:40;;;;;;;15.60;6.78;;;;;;;11.29;75.15;100827.06;5037114;28;20041;-79
2022/05/29 05:47:08;;;;;;;17.20;6.78;;;;;;;11.82;74.54;100824.19;5037592;28;20053;-79
2022/05/29 05:49:36;;;;;;;13.23;6.43;;;;;;;12.71;71.45;100827.91;5039158;28;20072;-80
2022/05/29 05:52:03;;;;;;;11.75;5.95;;;;;;;13.12;68.46;100831.31;5038752;28;20065;-80
2022/05/29 05:54:31;;;;;;;10.02;5.85;;;;;;;13.85;65.86;100833.69;5038335;28;20084;-78
2022/05/29 05:56:57;;;;;;;11.15;5.35;;;;;;;14.15;63.48;100832.88;5036269;28;20057;-78
2022/05/29 05:59:24;;;;;;;12.27;5.88;;;;;;;13.53;64.95;100824.97;5035800;28;20057;-78
2022/05/29 06:01:50;;;;;;;9.48;5.15;;;;;;;13.16;66.79;100822.13;5035736;28;20065;-80
2022/05/29 06:04:18;;;;;;;10.48;5.18;;;;;;;12.67;68.04;100822.19;5037117;28;20140;-80
2022/05/29 06:06:45;;;;;;;10.27;5.57;;;;;;;12.11;70.26;100825.56;5037651;28;20475;-80
2022/05/29 06:09:13;;;;;;;9.73;5.70;;;;;;;11.91;70.97;100830.25;5046590;28;20060;-79
2022/05/29 06:11:40;;;;;;;12.88;5.50;;;;;;;11.66;73.02;100823.28;5047041;28;20041;-79
2022/05/29 06:14:07;;;;;;;12.52;6.72;;;;;;;11.09;74.42;100823.00;5047969;28;20068;-79
2022/05/29 06:16:34;;;;;;;16.38;6.47;;;;;;;11.13;75.26;100825.16;5044340;28;20050;-80
2022/05/29 06:19:01;;;;;;;13.27;6.53;;;;;;;11.08;75.63;100819.56;5039903;28;20140;-79
2022/05/29 06:21:29;;;;;;;12.63;7.13;;;;;;;11.13;75.91;100819.94;5040868;28;20568;-80
2022/05/29 06:23:55;;;;;;;12.75;6.68;;;;;;;11.20;76.23;100822.75;5039978;28;20122;-80
2022/05/29 06:26:22;;;;;;;10.57;6.50;;;;;;;11.28;75.62;100822.81;5038966;28;20678;-80
2022/05/29 06:28:49;;;;;;;13.80;6.53;;;;;;;11.09;75.72;100825.63;5039999;28;20053;-80
2022/05/29 06:31:15;;;;;;;10.40;6.18;;;;;;;11.09;76.46;100825.63;5039655;28;20055;-80
2022/05/29 06:33:42;;;;;;;12.18;6.43;;;;;;;11.14;75.76;100831.22;5040069;28;20542;-80
2022/05/29 06:36:11;;;;;;;10.40;5.30;;;;;;;11.30;75.31;100828.72;5038545;28;20056;-80
2022/05/29 06:38:39;;;;;;;9.23;5.50;;;;;;;11.47;73.72;100830.41;5038122;28;20057;-79
2022/05/29 06:41:07;;;;;;;9.70;6.13;;;;;;;11.39;74.64;100819.88;5038594;28;20479;-79
2022/05/29 06:43:34;;;;;;;12.63;5.32;;;;;;;11.65;72.66;100827.72;5040069;28;20156;-80
2022/05/29 06:46:01;;;;;;;10.10;5.53;;;;;;;11.93;72.09;100821.25;5041729;28;20128;-80
2022/05/29 06:48:29;;;;;;;13.32;5.50;;;;;;;12.23;70.95;100824.28;5042028;28;20085;-81
2022/05/29 06:50:56;;;;;;;11.90;5.00;;;;;;;12.36;70.23;100824.59;5042070;28;20101;-80
2022/05/29 06:53:25;;;;;;;11.40;5.75;;;;;;;12.90;69.10;100824.94;5043676;28;20076;-81
2022/05/29 06:55:55;;;;;;;12.95;5.93;;;;;;;13.03;67.29;100821.78;5043915;28;20060;-81
2022/05/29 06:58:23;;;;;;;9.23;5.30;;;;;;;13.56;67.47;100826.44;5042553;28;20128;-81
2022/05/29 07:09:07;;;;;;;10.77;5.10;;;;;;;12.55;68.39;100818.22;5040427;28;20064;-80
2022/05/29 07:11:40;;;;;;;10.48;4.80;;;;;;;12.65;69.18;100818.91;5041890;28;20076;-80
2022/05/29 07:14:07;;;;;;;8.23;5.25;;;;;;;12.26;69.86;100814.28;5043148;28;20050;-81
2022/05/29 07:16:35;;;;;;;10.98;5.38;;;;;;;12.08;70.47;100820.66;5043273;28;20072;-81
2022/05/29 07:19:01;;;;;;;7.90;5.30;;;;;;;12.04;70.47;100819.31;5041186;28;20124;-80
2022/05/29 07:21:31;;;;;;;10.25;5.15;;;;;;;12.07;70.30;100817.19;5037536;28;20065;-80
2022/05/29 07:23:57;;;;;;;10.93;5.28;;;;;;;12.18;70.40;100821.31;5038151;28;20049;-80
2022/05/29 07:26:25;;;;;;;8.70;5.50;;;;;;;11.84;70.95;100808.28;5039145;28;20045;-80
2022/05/29 07:28:53;;;;;;;11.77;5.10;;;;;;;12.14;71.38;100814.75;5038406;28;20526;-80
2022/05/29 07:31:22;;;;;;;8.90;5.18;;;;;;;12.18;71.08;100816.91;5039904;28;20077;-82
2022/05/29 07:33:49;;;;;;;8.43;5.40;;;;;;;12.23;71.17;100819.88;5039002;28;20080;-81
2022/05/29 07:36:19;;;;;;;13.25;5.38;;;;;;;12.14;70.34;100815.56;5037963;28;20046;-78
2022/05/29 07:38:46;;;;;;;10.00;5.57;;;;;;;12.32;69.55;100815.41;5035874;28;20099;-80
2022/05/29 07:44:00;;;;;;;12.80;5.22;;;;;;;12.15;70.26;100822.47;5020951;28;20511;-79
2022/05/29 07:46:27;;;;;;;8.00;5.30;;;;;;;12.05;71.13;100827.03;5035956;28;20053;-79
2022/05/29 07:48:54;;;;;;;8.30;4.60;;;;;;;11.79;72.27;100818.47;5036716;28;20547;-78
2022/05/29 07:51:20;;;;;;;10.48;4.97;;;;;;;11.84;72.39;100831.88;5036697;28;20064;-79
2022/05/29 07:53:47;;;;;;;13.15;4.90;;;;;;;11.88;72.30;100827.97;5037257;28;20049;-79
2022/05/29 07:56:16;;;;;;;11.70;4.60;;;;;;;11.91;73.13;100825.03;5036922;28;20088;-80
2022/05/29 07:58:43;;;;;;;5.47;3.85;;;;;;;11.92;72.43;100816.19;5037088;28;20061;-79
2022/05/29 08:01:12;;;;;;;9.88;4.18;;;;;;;12.05;71.56;100824.41;5037857;28;20117;-79
2022/05/29 08:03:38;;;;;;;10.50;3.58;;;;;;;12.01;71.60;100825.72;5030637;28;20053;-79
2022/05/29 08:06:05;;;;;;;5.75;3.38;;;;;;;12.13;71.24;100813.94;5015756;28;20058;-79
2022/05/29 08:08:33;;;;;;;6.15;3.45;;;;;;;12.05;70.90;100815.72;5014752;28;20085;-79
2022/05/29 08:11:00;;;;;;;10.27;3.53;;;;;;;12.06;70.99;100828.69;5016860;28;20046;-79
2022/05/29 08:13:27;;;;;;;6.13;3.13;;;;;;;12.18;70.97;100827.41;5016577;28;20080;-79
2022/05/29 08:15:53;;;;;;;6.47;3.47;;;;;;;12.44;70.02;100823.81;5015185;28;20157;-79
2022/05/29 08:18:26;;;;;;;5.38;3.38;;;;;;;12.35;70.16;100827.41;5015547;28;20611;-85
2022/05/29 08:20:53;;;;;;;7.10;3.60;;;;;;;12.62;70.72;100820.03;5002219;28;20082;-79
2022/05/29 08:23:20;;;;;;;6.22;3.38;;;;;;;12.91;69.31;100819.50;5000100;28;20085;-79
2022/05/29 08:31:15;;;;;;;6.38;3.92;;;;;;;14.09;65.65;100820.41;5015858;28;20084;-77
2022/05/29 08:33:46;;;;;;;6.10;3.85;;;;;;;13.95;64.47;100814.06;5013908;28;20054;-78
2022/05/29 08:36:16;;;;;;;6.78;4.05;;;;;;;14.22;64.50;100810.09;5013154;28;20413;-78
2022/05/29 08:38:46;;;;;;;6.78;4.05;;;;;;;15.16;60.92;100802.69;5011801;28;20065;-79
2022/05/29 08:41:16;;;;;;;9.98;4.03;;;;;;;15.82;58.83;100798.28;5013298;28;20133;-80
2022/05/29 08:43:50;;;;;;;7.75;3.88;;;;;;;15.55;59.74;100795.31;5014295;28;20081;-79
2022/05/29 08:46:21;;;;;;;7.80;3.90;;;;;;;15.70;59.31;100800.59;5015883;28;20051;-81
2022/05/29 08:48:52;;;;;;;6.30;3.85;;;;;;;15.25;61.70;100786.63;5015024;28;20148;-80
2022/05/29 08:51:32;;;;;;;7.00;3.85;;;;;;;14.38;63.25;100797.81;5015802;28;20081;-79
2022/05/29 08:54:10;;;;;;;6.10;4.10;;;;;;;14.01;64.08;100803.84;5015481;28;20049;-80
2022/05/29 08:56:42;;;;;;;7.45;4.18;;;;;;;13.54;65.26;100795.06;5016791;28;20110;-79
2022/05/29 08:59:16;;;;;;;8.32;4.35;;;;;;;13.33;67.26;100794.78;5016678;28;20049;-80
2022/05/29 09:01:58;;;;;;;7.95;4.65;;;;;;;13.32;67.42;100795.78;5017346;28;20073;-80
2022/05/29 09:04:31;;;;;;;7.97;4.10;;;;;;;13.41;66.24;100791.31;4998540;28;20069;-79
2022/05/29 09:07:00;;;;;;;9.07;4.70;;;;;;;13.62;65.76;100781.06;5017216;28;20129;-78
2022/05/29 09:09:32;;;;;;;6.53;4.10;;;;;;;14.54;65.02;100774.84;5016471;28;20042;-79
2022/05/29 09:12:03;;;;;;;10.10;4.72;;;;;;;16.30;58.98;100769.53;5014677;28;20104;-79
2022/05/29 09:14:38;;;;;;;6.80;4.10;;;;;;;16.80;55.25;100766.69;5014870;28;20133;-80
2022/05/29 09:17:12;;;;;;;6.68;3.72;;;;;;;16.69;56.02;100772.50;5014893;28;20128;-81
2022/05/29 09:19:46;;;;;;;6.80;3.90;;;;;;;16.62;56.87;100765.50;5017653;28;20076;-80
2022/05/29 09:22:19;;;;;;;7.63;3.88;;;;;;;15.78;58.42;100774.09;5016922;28;20688;-79
2022/05/29 09:25:00;;;;;;;8.10;4.10;;;;;;;16.02;58.07;100767.66;5016855;28;20081;-79
2022/05/29 09:27:30;;;;;;;9.40;4.25;;;;;;;17.76;53.61;100761.47;5016245;28;20104;-79
2022/05/29 09:29:56;;;;;;;7.82;3.80;;;;;;;17.49;51.10;100761.34;5013190;28;20061;-80
2022/05/29 09:32:25;;;;;;;9.20;3.80;;;;;;;17.41;52.55;100761.53;5012783;28;20599;-78
2022/05/29 09:35:00;;;;;;;8.82;4.15;;;;;;;16.54;52.39;100753.28;5014252;28;20045;-78
2022/05/29 09:37:37;;;;;;;7.97;4.10;;;;;;;15.06;56.33;100757.38;5014548;28;20104;-78
2022/05/29 09:40:11;;;;;;;11.65;4.45;;;;;;;14.93;58.25;100756.19;5013992;28;20057;-79
2022/05/29 09:42:39;;;;;;;7.43;4.30;;;;;;;14.63;62.36;100758.97;5016819;28;20042;-79
2022/05/29 09:50:20;;;;;;;9.68;4.80;;;;;;;13.46;68.26;100758.28;5057070;28;20134;-88
2022/05/29 09:52:47;;;;;;;11.45;5.53;;;;;;;13.28;68.91;100762.94;5056269;28;20048;-87
2022/05/29 09:55:36;;;;;;;12.38;4.65;;;;;;;12.67;72.54;100759.16;5057228;28;20474;-92
2022/05/29 09:58:07;;;;;;;9.18;4.20;;;;;;;12.60;74.90;100768.69;5060017;28;20063;-89
2022/05/29 10:00:37;;;;;;;8.63;5.18;;;;;;;12.25;78.14;100767.22;5060958;28;20417;-88
2022/05/29 10:03:07;;;;;;;9.77;4.63;;;;;;;12.05;80.83;100774.56;5059592;28;20144;-90
2022/05/29 10:05:37;;;;;;;6.78;4.40;;;;;;;12.09;82.88;100775.91;5058465;28;20127;-88
2022/05/29 10:08:19;;;;;;;14.52;4.65;;;;;;;11.96;80.90;100770.28;5060038;28;20330;-88
2022/05/29 10:10:46;;;;;;;6.23;3.90;;;;;;;12.30;81.18;100773.59;5058684;28;20132;-88
2022/05/29 10:13:36;;;;;;;7.55;4.20;;;;;;;12.38;78.98;100764.91;5059029;28;20045;-87
2022/05/29 10:16:03;;;;;;;5.65;3.38;;;;;;;12.63;78.82;100760.47;5057837;28;20449;-87
2022/05/29 10:18:34;;;;;;;5.47;3.67;;;;;;;12.86;77.54;100769.28;5057650;28;20128;-87
2022/05/29 10:21:14;;;;;;;6.55;3.50;;;;;;;13.05;72.21;100768.09;5057917;28;20108;-87
2022/05/29 10:23:41;;;;;;;7.53;3.58;;;;;;;13.61;71.51;100758.38;5056823;28;20094;-87
2022/05/29 10:26:16;;;;;;;4.28;3.50;;;;;;;13.98;69.94;100759.47;5057915;28;20124;-87
2022/05/29 10:28:43;;;;;;;6.78;3.88;;;;;;;13.83;69.46;100762.00;5058709;28;20044;-89
2022/05/29 10:31:13;;;;;;;6.22;3.35;;;;;;;14.12;69.43;100748.19;5057519;28;20060;-89
2022/05/29 10:33:41;;;;;;;5.63;3.10;;;;;;;14.17;70.62;100759.00;5056410;28;20049;-87
2022/05/29 10:36:15;;;;;;;4.22;3.42;;;;;;;14.58;69.96;100749.78;5057148;28;20112;-88
2022/05/29 10:38:44;;;;;;;7.05;4.10;;;;;;;14.69;71.27;100742.44;5056955;28;20087;-87
2022/05/29 10:41:11;;;;;;;7.20;3.60;;;;;;;15.13;68.94;100747.72;5058066;28;20094;-89
2022/05/29 10:43:48;;;;;;;8.18;3.58;;;;;;;15.80;62.54;100748.34;5058068;28;20403;-88
2022/05/29 10:46:18;;;;;;;6.50;3.75;;;;;;;16.46;59.42;100745.50;5040036;28;20559;-87
2022/05/29 10:49:22;;;;;;;6.40;3.75;;;;;;;15.98;61.21;100734.72;5058280;28;20045;-87
2022/05/29 10:52:03;;;;;;;4.75;3.22;;;;;;;15.82;62.04;100738.44;5040295;28;20092;-87
2022/05/29 10:54:48;;;;;;;7.25;3.67;;;;;;;15.07;62.78;100730.84;5057596;28;20657;-87
2022/05/29 10:57:48;;;;;;;9.23;3.50;;;;;;;14.64;64.42;100739.53;5059547;28;20561;-89
2022/05/29 11:00:31;;;;;;;8.35;3.78;;;;;;;15.33;62.60;100735.59;5058318;28;20049;-87
2022/05/29 11:03:21;;;;;;;;;;;;;;;14.90;62.36;100743.38;5057174;28;20087;-88
2022/05/29 11:06:17;;;;;;;8.75;4.68;;;;;;;14.81;63.45;100747.09;5056593;28;19920;-87
2022/05/29 11:09:02;;;;;;;8.82;4.30;;;;;;;15.32;64.34;100735.78;5056830;28;20072;-88
2022/05/29 11:11:45;;;;;;;7.65;4.25;;;;;;;15.73;62.65;100730.81;5056668;28;20072;-87
2022/05/29 11:14:20;;;;;;;;;;;;;;;15.60;62.89;100734.94;5058822;28;20045;-87
2022/05/29 11:17:03;;;;;;;9.00;3.80;;;;;;;15.54;61.46;100730.41;5056591;28;19999;-87
2022/05/29 11:19:36;;;;;;;;;;;;;;;15.66;61.15;100736.00;5055841;28;20168;-88
2022/05/29 11:22:14;;;;;;;7.05;2.78;;;;;;;16.13;59.85;100727.53;5055558;28;19971;-88
2022/05/29 11:25:00;;;;;;;3.35;2.38;;;;;;;16.53;57.48;100723.41;5057736;28;20043;-88
2022/05/29 11:27:47;;;;;;;2.85;2.38;;;;;;;16.44;55.75;100713.19;5056339;28;20045;-88
2022/05/29 11:30:18;;;;;;;4.50;3.30;;;;;;;16.67;55.54;100718.22;5057815;28;20044;-88
2022/05/29 11:33:18;;;;;;;8.15;3.72;;;;;;;16.54;55.51;100709.16;5059151;28;20044;-88
2022/05/29 11:36:01;;;;;;;7.45;3.78;;;;;;;16.13;55.96;100716.16;5056403;28;20419;-89
2022/05/29 11:38:54;;;;;;;4.72;3.42;;;;;;;15.82;57.22;100703.31;5059513;28;20158;-89
2022/05/29 11:41:28;;;;;;;3.72;2.53;;;;;;;15.45;57.74;100701.69;5059072;28;20495;-88
2022/05/29 11:44:02;;;;;;;3.60;2.47;;;;;;;15.53;57.41;100705.03;5057987;28;20915;-88
2022/05/29 11:52:21;;;;;;;3.00;2.22;;;;;;;15.02;60.82;100700.75;5057226;28;20055;-88
2022/05/29 11:55:03;;;;;;;2.73;2.10;;;;;;;13.50;63.35;100693.84;5058289;28;20130;-87
2022/05/29 11:57:37;;;;;;;5.30;2.35;;;;;;;13.08;68.25;100699.47;5057583;28;20291;-87
2022/05/29 12:00:10;;;;;;;3.33;2.70;;;;;;;13.02;71.38;100704.56;5058121;28;20080;-87
2022/05/29 12:02:42;;;;;;;;;;;;;;;12.50;74.61;100697.16;5059551;28;20053;-90
2022/05/29 12:05:24;;;;;;;4.40;3.25;;;;;;;12.09;77.83;100685.91;5061034;28;19931;-90
2022/05/29 12:07:57;;;;;;;4.88;3.70;;;;;;;12.38;79.81;100669.63;5057768;28;20108;-89
2022/05/29 12:10:28;;;;;;;5.03;3.75;;;;;;;12.87;81.60;100678.19;5059344;28;20079;-89
2022/05/29 12:13:17;;;;;;;6.78;3.92;;;;;;;13.03;80.63;100680.75;5061189;28;20072;-90
2022/05/29 12:15:47;;;;;;;6.75;4.80;;;;;;;13.59;79.12;100671.78;5058950;28;20130;-88
2022/05/29 12:18:17;;;;;;;8.52;4.00;;;;;;;13.88;78.47;100670.25;5057844;28;20053;-89
2022/05/29 12:20:51;;;;;;;8.60;4.25;;;;;;;14.23;74.76;100661.72;5058285;28;20080;-89